sensor_id;sensor_type;location;lat;lon;timestamp;temperature;humidity
56428;DHT22;42331;53.578;9.760;2023-06-04T00:00:19;10.80;99.90
56428;DHT22;42331;53.578;9.760;2023-06-04T00:02:50;10.70;99.90
56428;DHT22;42331;53.578;9.760;2023-06-04T00:05:21;10.70;99.90
56428;DHT22;42331;53.578;9.760;2023-06-04T00:07:55;10.70;99.90
56428;DHT22;42331;53.578;9.760;2023-06-04T00:10:26;10.70;99.90
56428;DHT22;42331;53.578;9.760;2023-06-04T00:12:57;10.60;99.90
56428;DHT22;42331;53.578;9.760;2023-06-04T00:15:27;10.60;99.90
56428;DHT22;42331;53.578;9.760;2023-06-04T00:17:58;10.50;99.90
56428;DHT22;42331;53.578;9.760;2023-06-04T00:20:29;10.50;99.90
56428;DHT22;42331;53.578;9.760;2023-06-04T00:23:00;10.40;99.90
56428;DHT22;42331;53.578;9.760;2023-06-04T00:25:31;10.40;99.90
56428;DHT22;42331;53.578;9.760;2023-06-04T00:28:02;10.40;99.90
56428;DHT22;42331;53.578;9.760;2023-06-04T00:30:32;10.40;99.90
56428;DHT22;42331;53.578;9.760;2023-06-04T00:33:03;10.40;99.90
56428;DHT22;42331;53.578;9.760;2023-06-04T00:35:34;10.30;99.90
56428;DHT22;42331;53.578;9.760;2023-06-04T00:38:05;10.30;99.90
56428;DHT22;42331;53.578;9.760;2023-06-04T00:40:35;10.30;99.90
56428;DHT22;42331;53.578;9.760;2023-06-04T00:43:06;10.30;99.90
56428;DHT22;42331;53.578;9.760;2023-06-04T00:45:37;10.20;99.90
56428;DHT22;42331;53.578;9.760;2023-06-04T00:48:08;10.20;99.90
56428;DHT22;42331;53.578;9.760;2023-06-04T00:50:39;10.20;99.90
56428;DHT22;42331;53.578;9.760;2023-06-04T00:53:10;10.20;99.90
56428;DHT22;42331;53.578;9.760;2023-06-04T00:55:41;10.10;99.90
56428;DHT22;42331;53.578;9.760;2023-06-04T00:58:12;10.10;99.90
56428;DHT22;42331;53.578;9.760;2023-06-04T01:00:44;10.10;99.90
56428;DHT22;42331;53.578;9.760;2023-06-04T01:03:18;10.00;99.90
56428;DHT22;42331;53.578;9.760;2023-06-04T01:06:00;9.90;99.90
56428;DHT22;42331;53.578;9.760;2023-06-04T01:08:35;10.00;99.90
56428;DHT22;42331;53.578;9.760;2023-06-04T01:11:07;9.90;99.90
56428;DHT22;42331;53.578;9.760;2023-06-04T01:13:37;9.90;99.90
56428;DHT22;42331;53.578;9.760;2023-06-04T01:16:09;9.90;99.90
56428;DHT22;42331;53.578;9.760;2023-06-04T01:18:42;9.80;99.90
56428;DHT22;42331;53.578;9.760;2023-06-04T01:21:13;9.80;99.90
56428;DHT22;42331;53.578;9.760;2023-06-04T01:23:50;9.70;99.90
56428;DHT22;42331;53.578;9.760;2023-06-04T01:26:30;9.80;99.90
56428;DHT22;42331;53.578;9.760;2023-06-04T01:29:02;9.70;99.90
56428;DHT22;42331;53.578;9.760;2023-06-04T01:31:32;9.70;99.90
56428;DHT22;42331;53.578;9.760;2023-06-04T01:34:07;9.60;99.90
56428;DHT22;42331;53.578;9.760;2023-06-04T01:36:38;9.60;99.90
56428;DHT22;42331;53.578;9.760;2023-06-04T01:39:09;9.50;99.90
56428;DHT22;42331;53.578;9.760;2023-06-04T01:41:40;9.60;99.90
56428;DHT22;42331;53.578;9.760;2023-06-04T01:44:11;9.50;99.90
56428;DHT22;42331;53.578;9.760;2023-06-04T01:46:42;9.50;99.90
56428;DHT22;42331;53.578;9.760;2023-06-04T01:49:12;9.40;99.90
56428;DHT22;42331;53.578;9.760;2023-06-04T01:51:43;9.40;99.90
56428;DHT22;42331;53.578;9.760;2023-06-04T01:54:14;9.30;99.90
56428;DHT22;42331;53.578;9.760;2023-06-04T01:56:45;9.30;99.90
56428;DHT22;42331;53.578;9.760;2023-06-04T01:59:16;9.20;99.90
56428;DHT22;42331;53.578;9.760;2023-06-04T02:01:47;9.20;99.90
56428;DHT22;42331;53.578;9.760;2023-06-04T02:04:18;9.30;99.90
56428;DHT22;42331;53.578;9.760;2023-06-04T02:06:50;9.30;99.90
56428;DHT22;42331;53.578;9.760;2023-06-04T02:09:20;9.30;99.90
56428;DHT22;42331;53.578;9.760;2023-06-04T02:11:51;9.30;99.90
56428;DHT22;42331;53.578;9.760;2023-06-04T02:14:22;9.20;99.90
56428;DHT22;42331;53.578;9.760;2023-06-04T02:16:52;9.10;99.90
56428;DHT22;42331;53.578;9.760;2023-06-04T02:19:28;9.10;99.90
56428;DHT22;42331;53.578;9.760;2023-06-04T02:21:59;9.10;99.90
56428;DHT22;42331;53.578;9.760;2023-06-04T02:24:29;9.10;99.90
56428;DHT22;42331;53.578;9.760;2023-06-04T02:27:00;9.10;99.90
56428;DHT22;42331;53.578;9.760;2023-06-04T02:29:31;9.10;99.90
56428;DHT22;42331;53.578;9.760;2023-06-04T02:32:03;9.00;99.90
56428;DHT22;42331;53.578;9.760;2023-06-04T02:34:34;9.00;99.90
56428;DHT22;42331;53.578;9.760;2023-06-04T02:37:05;8.90;99.90
56428;DHT22;42331;53.578;9.760;2023-06-04T02:39:36;9.00;99.90
56428;DHT22;42331;53.578;9.760;2023-06-04T02:42:07;8.90;99.90
56428;DHT22;42331;53.578;9.760;2023-06-04T02:44:38;8.90;99.90
56428;DHT22;42331;53.578;9.760;2023-06-04T02:47:08;8.90;99.90
56428;DHT22;42331;53.578;9.760;2023-06-04T02:49:39;8.90;99.90
56428;DHT22;42331;53.578;9.760;2023-06-04T02:52:10;8.90;99.90
56428;DHT22;42331;53.578;9.760;2023-06-04T02:54:40;8.80;99.90
56428;DHT22;42331;53.578;9.760;2023-06-04T02:57:11;8.80;99.90
56428;DHT22;42331;53.578;9.760;2023-06-04T02:59:42;8.80;99.90
56428;DHT22;42331;53.578;9.760;2023-06-04T03:02:13;8.80;99.90
56428;DHT22;42331;53.578;9.760;2023-06-04T03:04:45;8.80;99.90
56428;DHT22;42331;53.578;9.760;2023-06-04T03:07:18;8.80;99.90
56428;DHT22;42331;53.578;9.760;2023-06-04T03:09:53;8.80;99.90
56428;DHT22;42331;53.578;9.760;2023-06-04T03:12:23;8.80;99.90
56428;DHT22;42331;53.578;9.760;2023-06-04T03:14:54;8.80;99.90
56428;DHT22;42331;53.578;9.760;2023-06-04T03:17:26;8.70;99.90
56428;DHT22;42331;53.578;9.760;2023-06-04T03:19:57;8.60;99.90
56428;DHT22;42331;53.578;9.760;2023-06-04T03:22:28;8.60;99.90
56428;DHT22;42331;53.578;9.760;2023-06-04T03:24:58;8.60;99.90
56428;DHT22;42331;53.578;9.760;2023-06-04T03:27:31;8.70;99.90
56428;DHT22;42331;53.578;9.760;2023-06-04T03:30:03;8.80;99.90
56428;DHT22;42331;53.578;9.760;2023-06-04T03:32:35;8.80;99.90
56428;DHT22;42331;53.578;9.760;2023-06-04T03:35:06;8.90;99.90
56428;DHT22;42331;53.578;9.760;2023-06-04T03:37:37;8.80;99.90
56428;DHT22;42331;53.578;9.760;2023-06-04T03:40:08;8.80;99.90
56428;DHT22;42331;53.578;9.760;2023-06-04T03:42:39;8.80;99.90
56428;DHT22;42331;53.578;9.760;2023-06-04T03:45:09;8.80;99.90
56428;DHT22;42331;53.578;9.760;2023-06-04T03:47:40;8.80;99.90
56428;DHT22;42331;53.578;9.760;2023-06-04T03:50:11;8.80;99.90
56428;DHT22;42331;53.578;9.760;2023-06-04T03:52:42;8.90;99.90
56428;DHT22;42331;53.578;9.760;2023-06-04T03:55:12;9.00;99.90
56428;DHT22;42331;53.578;9.760;2023-06-04T03:57:44;9.00;99.90
56428;DHT22;42331;53.578;9.760;2023-06-04T04:00:15;9.10;99.90
56428;DHT22;42331;53.578;9.760;2023-06-04T04:02:46;9.20;99.90
56428;DHT22;42331;53.578;9.760;2023-06-04T04:05:17;9.20;99.90
56428;DHT22;42331;53.578;9.760;2023-06-04T04:07:47;9.10;99.90
56428;DHT22;42331;53.578;9.760;2023-06-04T04:10:18;9.20;99.90
56428;DHT22;42331;53.578;9.760;2023-06-04T04:12:49;9.20;99.90
56428;DHT22;42331;53.578;9.760;2023-06-04T04:15:21;9.30;99.90
56428;DHT22;42331;53.578;9.760;2023-06-04T04:17:52;9.40;99.90
56428;DHT22;42331;53.578;9.760;2023-06-04T04:20:23;9.40;99.90
56428;DHT22;42331;53.578;9.760;2023-06-04T04:22:54;9.40;99.90
56428;DHT22;42331;53.578;9.760;2023-06-04T04:25:24;9.50;99.90
56428;DHT22;42331;53.578;9.760;2023-06-04T04:27:55;9.60;99.90
56428;DHT22;42331;53.578;9.760;2023-06-04T04:30:26;9.60;99.90
56428;DHT22;42331;53.578;9.760;2023-06-04T04:33:01;9.70;99.90
56428;DHT22;42331;53.578;9.760;2023-06-04T04:35:32;9.80;99.90
56428;DHT22;42331;53.578;9.760;2023-06-04T04:38:04;9.80;99.90
56428;DHT22;42331;53.578;9.760;2023-06-04T04:40:35;9.80;99.90
56428;DHT22;42331;53.578;9.760;2023-06-04T04:43:06;9.90;99.90
56428;DHT22;42331;53.578;9.760;2023-06-04T04:45:36;9.90;99.90
56428;DHT22;42331;53.578;9.760;2023-06-04T04:48:07;10.00;99.90
56428;DHT22;42331;53.578;9.760;2023-06-04T04:50:38;10.10;99.90
56428;DHT22;42331;53.578;9.760;2023-06-04T04:53:09;10.20;99.90
56428;DHT22;42331;53.578;9.760;2023-06-04T04:55:39;10.20;99.90
56428;DHT22;42331;53.578;9.760;2023-06-04T04:58:10;10.30;99.90
56428;DHT22;42331;53.578;9.760;2023-06-04T05:00:41;10.30;99.90
56428;DHT22;42331;53.578;9.760;2023-06-04T05:03:12;10.40;99.90
56428;DHT22;42331;53.578;9.760;2023-06-04T05:05:43;10.50;99.90
56428;DHT22;42331;53.578;9.760;2023-06-04T05:08:14;10.60;99.90
56428;DHT22;42331;53.578;9.760;2023-06-04T05:10:45;10.60;99.90
56428;DHT22;42331;53.578;9.760;2023-06-04T05:13:16;10.70;99.90
56428;DHT22;42331;53.578;9.760;2023-06-04T05:15:48;10.90;99.90
56428;DHT22;42331;53.578;9.760;2023-06-04T05:18:19;10.90;99.90
56428;DHT22;42331;53.578;9.760;2023-06-04T05:21:00;10.90;99.90
56428;DHT22;42331;53.578;9.760;2023-06-04T05:23:31;11.00;99.90
56428;DHT22;42331;53.578;9.760;2023-06-04T05:26:03;11.10;99.90
56428;DHT22;42331;53.578;9.760;2023-06-04T05:28:34;11.20;99.90
56428;DHT22;42331;53.578;9.760;2023-06-04T05:31:05;11.30;99.90
56428;DHT22;42331;53.578;9.760;2023-06-04T05:33:39;11.40;99.90
56428;DHT22;42331;53.578;9.760;2023-06-04T05:36:15;11.50;99.90
56428;DHT22;42331;53.578;9.760;2023-06-04T05:38:46;11.40;99.90
56428;DHT22;42331;53.578;9.760;2023-06-04T05:41:16;11.50;99.90
56428;DHT22;42331;53.578;9.760;2023-06-04T05:43:47;11.70;99.90
56428;DHT22;42331;53.578;9.760;2023-06-04T05:46:18;11.80;99.90
56428;DHT22;42331;53.578;9.760;2023-06-04T05:48:48;11.80;99.90
56428;DHT22;42331;53.578;9.760;2023-06-04T05:51:19;11.90;99.90
56428;DHT22;42331;53.578;9.760;2023-06-04T05:53:50;12.00;99.90
56428;DHT22;42331;53.578;9.760;2023-06-04T05:56:21;12.10;99.90
56428;DHT22;42331;53.578;9.760;2023-06-04T05:58:52;12.20;99.90
56428;DHT22;42331;53.578;9.760;2023-06-04T06:01:23;12.30;99.90
56428;DHT22;42331;53.578;9.760;2023-06-04T06:03:54;12.40;99.90
56428;DHT22;42331;53.578;9.760;2023-06-04T06:06:25;12.60;99.90
56428;DHT22;42331;53.578;9.760;2023-06-04T06:08:56;12.70;99.90
56428;DHT22;42331;53.578;9.760;2023-06-04T06:11:28;12.70;99.90
56428;DHT22;42331;53.578;9.760;2023-06-04T06:13:59;12.90;99.90
56428;DHT22;42331;53.578;9.760;2023-06-04T06:16:30;12.90;99.90
56428;DHT22;42331;53.578;9.760;2023-06-04T06:19:00;13.10;99.90
56428;DHT22;42331;53.578;9.760;2023-06-04T06:21:31;13.10;99.90
56428;DHT22;42331;53.578;9.760;2023-06-04T06:24:02;13.10;99.90
56428;DHT22;42331;53.578;9.760;2023-06-04T06:26:33;13.30;99.90
56428;DHT22;42331;53.578;9.760;2023-06-04T06:29:04;13.40;99.90
56428;DHT22;42331;53.578;9.760;2023-06-04T06:31:35;13.60;99.90
56428;DHT22;42331;53.578;9.760;2023-06-04T06:34:05;13.70;99.90
56428;DHT22;42331;53.578;9.760;2023-06-04T06:36:36;13.80;99.90
56428;DHT22;42331;53.578;9.760;2023-06-04T06:39:07;13.80;99.90
56428;DHT22;42331;53.578;9.760;2023-06-04T06:41:38;14.00;99.90
56428;DHT22;42331;53.578;9.760;2023-06-04T06:44:10;13.90;99.90
56428;DHT22;42331;53.578;9.760;2023-06-04T06:46:40;14.00;99.90
56428;DHT22;42331;53.578;9.760;2023-06-04T06:49:11;14.20;99.90
56428;DHT22;42331;53.578;9.760;2023-06-04T06:51:42;14.30;99.90
56428;DHT22;42331;53.578;9.760;2023-06-04T06:54:15;14.40;99.90
56428;DHT22;42331;53.578;9.760;2023-06-04T06:56:46;14.60;99.90
56428;DHT22;42331;53.578;9.760;2023-06-04T06:59:19;14.60;99.90
56428;DHT22;42331;53.578;9.760;2023-06-04T07:01:49;14.70;99.90
56428;DHT22;42331;53.578;9.760;2023-06-04T07:04:20;14.80;99.90
56428;DHT22;42331;53.578;9.760;2023-06-04T07:06:51;14.90;99.90
56428;DHT22;42331;53.578;9.760;2023-06-04T07:09:22;15.00;99.90
56428;DHT22;42331;53.578;9.760;2023-06-04T07:11:53;15.10;99.90
56428;DHT22;42331;53.578;9.760;2023-06-04T07:14:23;15.20;99.90
56428;DHT22;42331;53.578;9.760;2023-06-04T07:16:54;15.20;99.90
56428;DHT22;42331;53.578;9.760;2023-06-04T07:19:25;15.30;99.90
56428;DHT22;42331;53.578;9.760;2023-06-04T07:21:59;15.40;99.90
56428;DHT22;42331;53.578;9.760;2023-06-04T07:24:30;15.50;99.90
56428;DHT22;42331;53.578;9.760;2023-06-04T07:27:00;15.60;99.90
56428;DHT22;42331;53.578;9.760;2023-06-04T07:29:31;15.90;99.90
56428;DHT22;42331;53.578;9.760;2023-06-04T07:32:02;15.90;99.90
56428;DHT22;42331;53.578;9.760;2023-06-04T07:34:33;16.00;99.90
56428;DHT22;42331;53.578;9.760;2023-06-04T07:37:04;16.00;99.90
56428;DHT22;42331;53.578;9.760;2023-06-04T07:39:35;15.80;99.90
56428;DHT22;42331;53.578;9.760;2023-06-04T07:42:06;15.90;99.90
56428;DHT22;42331;53.578;9.760;2023-06-04T07:44:40;16.10;99.90
56428;DHT22;42331;53.578;9.760;2023-06-04T07:47:10;16.20;99.90
56428;DHT22;42331;53.578;9.760;2023-06-04T07:49:41;16.30;99.90
56428;DHT22;42331;53.578;9.760;2023-06-04T07:52:12;16.50;99.90
56428;DHT22;42331;53.578;9.760;2023-06-04T07:54:42;16.40;99.90
56428;DHT22;42331;53.578;9.760;2023-06-04T07:57:13;16.40;99.90
56428;DHT22;42331;53.578;9.760;2023-06-04T07:59:44;16.50;99.90
56428;DHT22;42331;53.578;9.760;2023-06-04T08:02:15;16.70;99.90
56428;DHT22;42331;53.578;9.760;2023-06-04T08:04:46;16.90;99.90
56428;DHT22;42331;53.578;9.760;2023-06-04T08:07:17;16.90;99.90
56428;DHT22;42331;53.578;9.760;2023-06-04T08:09:48;16.90;99.90
56428;DHT22;42331;53.578;9.760;2023-06-04T08:12:20;17.10;99.90
56428;DHT22;42331;53.578;9.760;2023-06-04T08:14:50;17.20;99.90
56428;DHT22;42331;53.578;9.760;2023-06-04T08:17:21;17.30;99.90
56428;DHT22;42331;53.578;9.760;2023-06-04T08:19:52;17.40;99.90
56428;DHT22;42331;53.578;9.760;2023-06-04T08:22:30;17.40;99.90
56428;DHT22;42331;53.578;9.760;2023-06-04T08:25:04;17.30;99.90
56428;DHT22;42331;53.578;9.760;2023-06-04T08:27:41;17.30;99.90
56428;DHT22;42331;53.578;9.760;2023-06-04T08:30:12;17.40;99.90
56428;DHT22;42331;53.578;9.760;2023-06-04T08:32:43;17.40;99.90
56428;DHT22;42331;53.578;9.760;2023-06-04T08:35:14;17.40;99.90
56428;DHT22;42331;53.578;9.760;2023-06-04T08:37:50;17.70;99.90
56428;DHT22;42331;53.578;9.760;2023-06-04T08:40:20;17.80;99.90
56428;DHT22;42331;53.578;9.760;2023-06-04T08:43:08;17.90;99.90
56428;DHT22;42331;53.578;9.760;2023-06-04T08:45:54;17.70;99.90
56428;DHT22;42331;53.578;9.760;2023-06-04T08:48:29;17.80;99.90
56428;DHT22;42331;53.578;9.760;2023-06-04T08:51:02;17.90;99.90
56428;DHT22;42331;53.578;9.760;2023-06-04T08:53:44;18.00;99.90
56428;DHT22;42331;53.578;9.760;2023-06-04T08:56:23;18.00;99.90
56428;DHT22;42331;53.578;9.760;2023-06-04T08:59:05;18.10;99.90
56428;DHT22;42331;53.578;9.760;2023-06-04T09:01:39;18.30;99.90
56428;DHT22;42331;53.578;9.760;2023-06-04T09:04:14;18.50;99.90
56428;DHT22;42331;53.578;9.760;2023-06-04T09:06:45;18.70;99.90
56428;DHT22;42331;53.578;9.760;2023-06-04T09:09:23;18.70;99.90
56428;DHT22;42331;53.578;9.760;2023-06-04T09:11:56;18.60;99.90
56428;DHT22;42331;53.578;9.760;2023-06-04T09:14:27;18.40;99.90
56428;DHT22;42331;53.578;9.760;2023-06-04T09:16:58;18.50;99.90
56428;DHT22;42331;53.578;9.760;2023-06-04T09:19:29;18.40;99.90
56428;DHT22;42331;53.578;9.760;2023-06-04T09:22:03;18.40;99.90
56428;DHT22;42331;53.578;9.760;2023-06-04T09:24:49;18.50;99.90
56428;DHT22;42331;53.578;9.760;2023-06-04T09:27:43;18.90;99.90
56428;DHT22;42331;53.578;9.760;2023-06-04T09:30:20;19.20;99.90
56428;DHT22;42331;53.578;9.760;2023-06-04T09:33:18;19.10;99.90
56428;DHT22;42331;53.578;9.760;2023-06-04T09:35:59;19.30;99.90
56428;DHT22;42331;53.578;9.760;2023-06-04T09:38:34;19.50;99.90
56428;DHT22;42331;53.578;9.760;2023-06-04T09:41:12;19.60;99.90
56428;DHT22;42331;53.578;9.760;2023-06-04T09:43:43;19.60;99.90
56428;DHT22;42331;53.578;9.760;2023-06-04T09:46:17;19.60;99.90
56428;DHT22;42331;53.578;9.760;2023-06-04T09:48:48;19.60;99.90
56428;DHT22;42331;53.578;9.760;2023-06-04T09:51:19;19.60;99.90
56428;DHT22;42331;53.578;9.760;2023-06-04T09:53:58;20.10;99.90
56428;DHT22;42331;53.578;9.760;2023-06-04T09:56:29;20.00;99.90
56428;DHT22;42331;53.578;9.760;2023-06-04T09:59:00;20.20;99.90
56428;DHT22;42331;53.578;9.760;2023-06-04T10:01:32;20.60;99.90
56428;DHT22;42331;53.578;9.760;2023-06-04T10:04:06;21.30;99.90
56428;DHT22;42331;53.578;9.760;2023-06-04T10:06:39;21.90;99.90
56428;DHT22;42331;53.578;9.760;2023-06-04T10:09:10;21.20;99.90
56428;DHT22;42331;53.578;9.760;2023-06-04T10:11:48;21.80;99.90
56428;DHT22;42331;53.578;9.760;2023-06-04T10:14:22;22.60;99.90
56428;DHT22;42331;53.578;9.760;2023-06-04T10:16:57;21.80;99.90
56428;DHT22;42331;53.578;9.760;2023-06-04T10:19:29;22.10;99.90
56428;DHT22;42331;53.578;9.760;2023-06-04T10:22:01;23.20;99.90
56428;DHT22;42331;53.578;9.760;2023-06-04T10:24:32;24.30;99.90
56428;DHT22;42331;53.578;9.760;2023-06-04T10:27:03;24.00;99.90
56428;DHT22;42331;53.578;9.760;2023-06-04T10:29:41;23.90;99.90
56428;DHT22;42331;53.578;9.760;2023-06-04T10:32:12;23.20;99.90
56428;DHT22;42331;53.578;9.760;2023-06-04T10:34:43;24.00;99.90
56428;DHT22;42331;53.578;9.760;2023-06-04T10:37:21;25.00;99.90
56428;DHT22;42331;53.578;9.760;2023-06-04T10:39:57;23.70;99.90
56428;DHT22;42331;53.578;9.760;2023-06-04T10:42:38;23.40;99.90
56428;DHT22;42331;53.578;9.760;2023-06-04T10:45:09;23.60;99.90
56428;DHT22;42331;53.578;9.760;2023-06-04T10:47:42;25.30;99.90
56428;DHT22;42331;53.578;9.760;2023-06-04T10:50:14;25.60;99.90
56428;DHT22;42331;53.578;9.760;2023-06-04T10:52:55;24.30;99.90
56428;DHT22;42331;53.578;9.760;2023-06-04T10:55:26;23.40;99.90
56428;DHT22;42331;53.578;9.760;2023-06-04T10:57:59;22.70;99.90
56428;DHT22;42331;53.578;9.760;2023-06-04T11:00:41;24.30;99.90
56428;DHT22;42331;53.578;9.760;2023-06-04T11:03:13;24.60;99.90
56428;DHT22;42331;53.578;9.760;2023-06-04T11:05:47;25.40;99.90
56428;DHT22;42331;53.578;9.760;2023-06-04T11:08:26;25.80;99.90
56428;DHT22;42331;53.578;9.760;2023-06-04T11:10:59;25.00;99.90
56428;DHT22;42331;53.578;9.760;2023-06-04T11:13:43;24.60;99.90
56428;DHT22;42331;53.578;9.760;2023-06-04T11:16:15;24.40;99.90
56428;DHT22;42331;53.578;9.760;2023-06-04T11:18:57;24.80;99.90
56428;DHT22;42331;53.578;9.760;2023-06-04T11:21:29;24.50;99.90
56428;DHT22;42331;53.578;9.760;2023-06-04T11:24:00;23.30;99.90
56428;DHT22;42331;53.578;9.760;2023-06-04T11:26:35;21.50;99.90
56428;DHT22;42331;53.578;9.760;2023-06-04T11:29:07;21.20;99.90
56428;DHT22;42331;53.578;9.760;2023-06-04T11:31:46;21.30;99.90
56428;DHT22;42331;53.578;9.760;2023-06-04T11:36:55;21.50;99.90
56428;DHT22;42331;53.578;9.760;2023-06-04T11:39:34;21.40;99.90
56428;DHT22;42331;53.578;9.760;2023-06-04T11:42:06;20.70;99.90
56428;DHT22;42331;53.578;9.760;2023-06-04T11:44:38;20.50;99.90
56428;DHT22;42331;53.578;9.760;2023-06-04T11:47:09;20.90;99.90
56428;DHT22;42331;53.578;9.760;2023-06-04T11:49:40;20.50;99.90
56428;DHT22;42331;53.578;9.760;2023-06-04T11:52:13;20.40;99.90
56428;DHT22;42331;53.578;9.760;2023-06-04T11:54:57;19.90;99.90
56428;DHT22;42331;53.578;9.760;2023-06-04T11:57:29;19.90;99.90
56428;DHT22;42331;53.578;9.760;2023-06-04T12:00:00;19.90;99.90
56428;DHT22;42331;53.578;9.760;2023-06-04T12:02:31;20.20;99.90
56428;DHT22;42331;53.578;9.760;2023-06-04T12:05:15;20.20;99.90
56428;DHT22;42331;53.578;9.760;2023-06-04T12:07:50;20.30;99.90
56428;DHT22;42331;53.578;9.760;2023-06-04T12:10:21;19.90;99.90
56428;DHT22;42331;53.578;9.760;2023-06-04T12:12:55;20.10;99.90
56428;DHT22;42331;53.578;9.760;2023-06-04T12:15:26;20.30;99.90
56428;DHT22;42331;53.578;9.760;2023-06-04T12:17:57;20.40;99.90
56428;DHT22;42331;53.578;9.760;2023-06-04T12:20:39;20.60;99.90
56428;DHT22;42331;53.578;9.760;2023-06-04T12:23:19;20.70;99.90
56428;DHT22;42331;53.578;9.760;2023-06-04T12:25:51;20.70;99.90
56428;DHT22;42331;53.578;9.760;2023-06-04T12:28:21;20.40;99.90
56428;DHT22;42331;53.578;9.760;2023-06-04T12:30:52;20.20;99.90
56428;DHT22;42331;53.578;9.760;2023-06-04T12:33:23;20.30;99.90
56428;DHT22;42331;53.578;9.760;2023-06-04T12:35:54;20.40;99.90
56428;DHT22;42331;53.578;9.760;2023-06-04T12:38:24;20.10;99.90
56428;DHT22;42331;53.578;9.760;2023-06-04T12:40:55;20.10;99.90
56428;DHT22;42331;53.578;9.760;2023-06-04T12:43:26;20.10;99.90
56428;DHT22;42331;53.578;9.760;2023-06-04T12:45:57;20.30;99.90
56428;DHT22;42331;53.578;9.760;2023-06-04T12:48:27;20.30;99.90
56428;DHT22;42331;53.578;9.760;2023-06-04T12:50:58;20.20;99.90
56428;DHT22;42331;53.578;9.760;2023-06-04T12:53:29;20.30;99.90
56428;DHT22;42331;53.578;9.760;2023-06-04T12:56:00;20.10;99.90
56428;DHT22;42331;53.578;9.760;2023-06-04T12:58:31;20.20;99.90
56428;DHT22;42331;53.578;9.760;2023-06-04T13:01:02;20.10;99.90
56428;DHT22;42331;53.578;9.760;2023-06-04T13:03:36;20.00;99.90
56428;DHT22;42331;53.578;9.760;2023-06-04T13:06:07;20.10;99.90
56428;DHT22;42331;53.578;9.760;2023-06-04T13:08:37;20.30;99.90
56428;DHT22;42331;53.578;9.760;2023-06-04T13:11:08;20.20;99.90
56428;DHT22;42331;53.578;9.760;2023-06-04T13:13:40;20.40;99.90
56428;DHT22;42331;53.578;9.760;2023-06-04T13:16:10;20.50;99.90
56428;DHT22;42331;53.578;9.760;2023-06-04T13:18:41;20.50;99.90
56428;DHT22;42331;53.578;9.760;2023-06-04T13:21:12;20.40;99.90
56428;DHT22;42331;53.578;9.760;2023-06-04T13:23:43;20.10;99.90
56428;DHT22;42331;53.578;9.760;2023-06-04T13:26:14;19.90;99.90
56428;DHT22;42331;53.578;9.760;2023-06-04T13:28:46;20.00;99.90
56428;DHT22;42331;53.578;9.760;2023-06-04T13:31:17;20.10;99.90
56428;DHT22;42331;53.578;9.760;2023-06-04T13:33:47;20.30;99.90
56428;DHT22;42331;53.578;9.760;2023-06-04T13:36:18;20.40;99.90
56428;DHT22;42331;53.578;9.760;2023-06-04T13:38:49;20.60;99.90
56428;DHT22;42331;53.578;9.760;2023-06-04T13:41:22;20.50;99.90
56428;DHT22;42331;53.578;9.760;2023-06-04T13:43:53;20.50;99.90
56428;DHT22;42331;53.578;9.760;2023-06-04T13:46:24;20.30;99.90
56428;DHT22;42331;53.578;9.760;2023-06-04T13:48:55;20.40;99.90
56428;DHT22;42331;53.578;9.760;2023-06-04T13:51:25;20.50;99.90
56428;DHT22;42331;53.578;9.760;2023-06-04T13:53:57;20.80;99.90
56428;DHT22;42331;53.578;9.760;2023-06-04T13:56:29;20.90;99.90
56428;DHT22;42331;53.578;9.760;2023-06-04T13:58:59;20.90;99.90
56428;DHT22;42331;53.578;9.760;2023-06-04T14:01:30;21.00;99.90
56428;DHT22;42331;53.578;9.760;2023-06-04T14:04:01;20.80;99.90
56428;DHT22;42331;53.578;9.760;2023-06-04T14:06:36;20.80;99.90
56428;DHT22;42331;53.578;9.760;2023-06-04T14:09:08;20.60;99.90
56428;DHT22;42331;53.578;9.760;2023-06-04T14:11:39;20.50;99.90
56428;DHT22;42331;53.578;9.760;2023-06-04T14:14:10;20.50;99.90
56428;DHT22;42331;53.578;9.760;2023-06-04T14:16:41;20.60;99.90
56428;DHT22;42331;53.578;9.760;2023-06-04T14:19:12;20.50;99.90
56428;DHT22;42331;53.578;9.760;2023-06-04T14:21:44;20.30;99.90
56428;DHT22;42331;53.578;9.760;2023-06-04T14:24:14;20.30;99.90
56428;DHT22;42331;53.578;9.760;2023-06-04T14:26:45;20.40;99.90
56428;DHT22;42331;53.578;9.760;2023-06-04T14:29:16;20.20;99.90
56428;DHT22;42331;53.578;9.760;2023-06-04T14:31:46;20.10;99.90
56428;DHT22;42331;53.578;9.760;2023-06-04T14:34:17;20.20;99.90
56428;DHT22;42331;53.578;9.760;2023-06-04T14:36:48;20.20;99.90
56428;DHT22;42331;53.578;9.760;2023-06-04T14:39:19;20.10;99.90
56428;DHT22;42331;53.578;9.760;2023-06-04T14:41:50;20.00;99.90
56428;DHT22;42331;53.578;9.760;2023-06-04T14:44:21;19.90;99.90
56428;DHT22;42331;53.578;9.760;2023-06-04T14:46:52;19.90;99.90
56428;DHT22;42331;53.578;9.760;2023-06-04T14:49:22;19.80;99.90
56428;DHT22;42331;53.578;9.760;2023-06-04T14:51:53;19.90;99.90
56428;DHT22;42331;53.578;9.760;2023-06-04T14:54:24;20.00;99.90
56428;DHT22;42331;53.578;9.760;2023-06-04T14:56:55;20.00;99.90
56428;DHT22;42331;53.578;9.760;2023-06-04T14:59:25;19.90;99.90
56428;DHT22;42331;53.578;9.760;2023-06-04T15:01:56;20.00;99.90
56428;DHT22;42331;53.578;9.760;2023-06-04T15:04:27;19.90;99.90
56428;DHT22;42331;53.578;9.760;2023-06-04T15:06:58;19.70;99.90
56428;DHT22;42331;53.578;9.760;2023-06-04T15:09:29;19.80;99.90
56428;DHT22;42331;53.578;9.760;2023-06-04T15:12:00;19.80;99.90
56428;DHT22;42331;53.578;9.760;2023-06-04T15:14:30;19.80;99.90
56428;DHT22;42331;53.578;9.760;2023-06-04T15:17:01;19.70;99.90
56428;DHT22;42331;53.578;9.760;2023-06-04T15:19:32;19.80;99.90
56428;DHT22;42331;53.578;9.760;2023-06-04T15:22:03;19.80;99.90
56428;DHT22;42331;53.578;9.760;2023-06-04T15:24:34;19.80;99.90
56428;DHT22;42331;53.578;9.760;2023-06-04T15:27:05;19.70;99.90
56428;DHT22;42331;53.578;9.760;2023-06-04T15:29:35;19.70;99.90
56428;DHT22;42331;53.578;9.760;2023-06-04T15:32:06;19.70;99.90
56428;DHT22;42331;53.578;9.760;2023-06-04T15:34:37;19.70;99.90
56428;DHT22;42331;53.578;9.760;2023-06-04T15:37:07;19.60;99.90
56428;DHT22;42331;53.578;9.760;2023-06-04T15:39:38;19.60;99.90
56428;DHT22;42331;53.578;9.760;2023-06-04T15:42:09;19.40;99.90
56428;DHT22;42331;53.578;9.760;2023-06-04T15:44:40;19.40;99.90
56428;DHT22;42331;53.578;9.760;2023-06-04T15:47:11;19.40;99.90
56428;DHT22;42331;53.578;9.760;2023-06-04T15:49:41;19.40;99.90
56428;DHT22;42331;53.578;9.760;2023-06-04T15:52:12;19.40;99.90
56428;DHT22;42331;53.578;9.760;2023-06-04T15:54:43;19.40;99.90
56428;DHT22;42331;53.578;9.760;2023-06-04T15:57:14;19.30;99.90
56428;DHT22;42331;53.578;9.760;2023-06-04T15:59:44;19.30;99.90
56428;DHT22;42331;53.578;9.760;2023-06-04T16:02:15;19.30;99.90
56428;DHT22;42331;53.578;9.760;2023-06-04T16:04:46;19.20;99.90
56428;DHT22;42331;53.578;9.760;2023-06-04T16:07:17;19.20;99.90